createdAt,value
2023-04-16T00:04:08.669Z,11.41
2023-04-16T00:09:17.085Z,10.57
2023-04-16T00:14:26.184Z,10.44
2023-04-16T00:19:34.861Z,12.34
2023-04-16T00:24:43.861Z,10.34
2023-04-16T00:29:52.503Z,11.05
2023-04-16T00:35:01.500Z,10.91
2023-04-16T00:40:10.063Z,16.75
2023-04-16T00:45:18.993Z,12.77
2023-04-16T00:50:27.489Z,12.01
2023-04-16T00:55:36.250Z,16.10
2023-04-16T01:00:44.736Z,12.84
2023-04-16T01:05:53.784Z,14.76
2023-04-16T01:11:02.690Z,15.28
2023-04-16T01:16:11.847Z,15.02
2023-04-16T01:21:20.236Z,14.76
2023-04-16T01:26:29.021Z,14.53
2023-04-16T01:31:37.603Z,13.20
2023-04-16T01:36:46.484Z,14.00
2023-04-16T01:41:55.038Z,13.97
2023-04-16T01:47:03.572Z,14.38
2023-04-16T01:52:12.366Z,13.87
2023-04-16T01:57:21.234Z,13.87
2023-04-16T02:02:29.750Z,13.99
2023-04-16T02:07:38.314Z,14.64
2023-04-16T02:12:46.678Z,13.77
2023-04-16T02:17:55.470Z,16.82
2023-04-16T02:23:03.983Z,12.67
2023-04-16T02:28:12.448Z,13.33
2023-04-16T02:33:20.685Z,14.05
2023-04-16T02:38:29.468Z,14.22
2023-04-16T02:43:37.945Z,12.87
2023-04-16T02:48:46.716Z,14.23
2023-04-16T02:53:55.126Z,13.02
2023-04-16T02:59:03.941Z,11.91
2023-04-16T03:04:12.362Z,12.97
2023-04-16T03:09:20.849Z,13.27
2023-04-16T03:14:29.291Z,12.97
2023-04-16T03:19:38.356Z,15.41
2023-04-16T03:24:47.005Z,12.47
2023-04-16T03:29:56.030Z,14.29
2023-04-16T03:35:04.469Z,14.65
2023-04-16T03:40:13.571Z,12.03
2023-04-16T03:45:22.258Z,12.06
2023-04-16T03:50:31.009Z,13.28
2023-04-16T03:55:39.616Z,12.61
2023-04-16T04:00:48.712Z,13.01
2023-04-16T04:05:57.312Z,13.08
2023-04-16T04:11:06.204Z,14.04
2023-04-16T04:16:14.872Z,14.52
2023-04-16T04:21:23.819Z,13.55
2023-04-16T04:26:32.624Z,15.31
2023-04-16T04:31:41.669Z,13.42
2023-04-16T04:36:49.976Z,14.26
2023-04-16T04:41:58.721Z,13.96
2023-04-16T04:47:07.338Z,13.62
2023-04-16T04:52:16.391Z,63.78
2023-04-16T04:57:24.968Z,64.20
2023-04-16T05:02:33.829Z,34.15
2023-04-16T05:07:42.246Z,23.84
2023-04-16T05:12:51.094Z,21.37
2023-04-16T05:17:59.608Z,41.89
2023-04-16T05:23:08.292Z,45.28
2023-04-16T05:28:16.806Z,29.30
2023-04-16T05:33:25.888Z,19.11
2023-04-16T05:38:34.404Z,18.84
2023-04-16T05:43:43.413Z,17.40
2023-04-16T05:48:51.812Z,15.11
2023-04-16T05:54:00.540Z,13.16
2023-04-16T05:59:09.498Z,18.68
2023-04-16T06:04:18.673Z,14.16
2023-04-16T06:09:26.951Z,15.57
2023-04-16T06:14:35.630Z,14.54
2023-04-16T06:19:44.233Z,13.13
2023-04-16T06:24:53.170Z,12.87
2023-04-16T06:30:01.380Z,11.30
2023-04-16T06:35:10.419Z,11.70
2023-04-16T06:40:19.098Z,12.26
2023-04-16T06:45:28.001Z,12.85
2023-04-16T06:50:36.408Z,13.26
2023-04-16T06:55:45.408Z,17.88
2023-04-16T07:00:54.012Z,12.49
2023-04-16T07:06:02.531Z,13.72
2023-04-16T07:11:11.039Z,12.52
2023-04-16T07:16:22.705Z,13.24
2023-04-16T07:21:21.155Z,13.13
2023-04-16T07:26:29.894Z,12.24
2023-04-16T07:31:38.286Z,13.00
2023-04-16T07:36:47.282Z,11.30
2023-04-16T07:41:55.799Z,10.99
2023-04-16T07:47:05.757Z,13.63
2023-04-16T07:52:12.697Z,11.65
2023-04-16T07:57:21.212Z,13.55
2023-04-16T08:02:29.989Z,14.01
2023-04-16T08:07:38.670Z,15.11
2023-04-16T08:12:47.448Z,12.07
2023-04-16T08:17:56.689Z,13.82
2023-04-16T08:23:05.127Z,11.92
2023-04-16T08:28:14.219Z,12.92
2023-04-16T08:33:22.924Z,12.20
2023-04-16T08:38:31.632Z,14.88
2023-04-16T08:43:40.680Z,13.93
2023-04-16T08:48:49.419Z,11.95
2023-04-16T08:53:58.166Z,14.54
2023-04-16T08:59:07.723Z,12.74
2023-04-16T09:04:16.151Z,14.55
2023-04-16T09:09:25.071Z,13.77
2023-04-16T09:14:33.505Z,13.01
2023-04-16T09:19:42.535Z,13.73
2023-04-16T09:24:50.860Z,12.32
2023-04-16T09:30:00.177Z,12.83
2023-04-16T09:35:08.768Z,12.93
2023-04-16T09:40:17.466Z,13.27
2023-04-16T09:45:26.339Z,14.57
2023-04-16T09:50:35.292Z,14.92
2023-04-16T09:55:45.904Z,14.16
2023-04-16T10:00:52.809Z,13.64
2023-04-16T10:06:01.005Z,15.24
2023-04-16T10:11:09.623Z,12.64
2023-04-16T10:16:18.214Z,12.01
2023-04-16T10:21:27.134Z,12.39
2023-04-16T10:26:35.859Z,13.89
2023-04-16T10:31:44.862Z,12.49
2023-04-16T10:36:53.648Z,13.26
2023-04-16T10:42:02.627Z,14.11
2023-04-16T10:47:11.086Z,14.43
2023-04-16T10:52:20.056Z,12.27
2023-04-16T10:57:28.779Z,12.85
2023-04-16T11:02:38.440Z,11.69
2023-04-16T11:07:46.264Z,11.90
2023-04-16T11:12:55.044Z,11.99
2023-04-16T11:18:03.911Z,14.29
2023-04-16T11:23:13.031Z,13.34
2023-04-16T11:28:21.391Z,11.15
2023-04-16T11:33:30.730Z,13.78
2023-04-16T11:38:39.230Z,12.50
2023-04-16T11:43:48.174Z,12.51
2023-04-16T11:48:56.879Z,13.82
2023-04-16T11:54:05.495Z,12.63
2023-04-16T11:59:14.589Z,11.19
2023-04-16T12:04:22.999Z,10.72
2023-04-16T12:09:31.132Z,12.07
2023-04-16T12:14:40.434Z,12.54
2023-04-16T12:19:49.152Z,10.95
2023-04-16T12:24:58.443Z,12.12
2023-04-16T12:30:06.923Z,11.78
2023-04-16T12:35:16.400Z,12.32
2023-04-16T12:40:25.206Z,11.23
2023-04-16T12:45:34.033Z,11.56
2023-04-16T12:50:42.391Z,11.35
2023-04-16T12:55:51.607Z,13.22
2023-04-16T13:01:00.846Z,12.85
2023-04-16T13:06:10.073Z,12.40
2023-04-16T13:11:18.753Z,12.84
2023-04-16T13:16:27.744Z,13.30
2023-04-16T13:21:36.486Z,13.02
2023-04-16T13:26:45.329Z,11.86
2023-04-16T13:31:53.881Z,12.86
2023-04-16T13:37:03.267Z,12.54
2023-04-16T13:42:11.776Z,13.07
2023-04-16T13:47:20.968Z,13.88
2023-04-16T13:52:29.415Z,15.75
2023-04-16T13:57:38.650Z,13.42
2023-04-16T14:02:47.031Z,13.52
2023-04-16T14:07:56.452Z,14.23
2023-04-16T14:13:05.182Z,14.95
2023-04-16T14:18:14.554Z,14.80
2023-04-16T14:23:23.438Z,15.62
2023-04-16T14:28:33.618Z,15.91
2023-04-16T14:33:32.379Z,15.82
2023-04-16T14:38:41.034Z,18.05
2023-04-16T14:43:49.677Z,16.11
2023-04-16T14:48:58.725Z,17.07
2023-04-16T14:54:07.461Z,19.97
2023-04-16T14:59:16.520Z,20.44
2023-04-16T15:04:25.268Z,18.41
2023-04-16T15:09:33.826Z,23.05
2023-04-16T15:14:42.426Z,19.71
2023-04-16T15:19:51.369Z,20.31
2023-04-16T15:24:59.895Z,19.95
2023-04-16T15:30:08.414Z,22.51
2023-04-16T15:35:17.250Z,22.10
2023-04-16T15:40:25.975Z,27.46
2023-04-16T15:45:34.548Z,20.73
2023-04-16T15:50:43.602Z,20.54
2023-04-16T15:55:52.114Z,20.22
2023-04-16T16:01:01.528Z,21.69
2023-04-16T16:06:10.142Z,20.27
2023-04-16T16:11:19.005Z,20.69
2023-04-16T16:16:27.620Z,19.25
2023-04-16T16:21:36.667Z,19.91
2023-04-16T16:26:45.405Z,17.84
2023-04-16T16:31:56.932Z,19.17
2023-04-16T16:36:55.534Z,18.65
2023-04-16T16:42:04.892Z,20.75
2023-04-16T16:47:13.597Z,20.35
2023-04-16T16:52:22.316Z,18.69
2023-04-16T16:57:31.052Z,19.04
2023-04-16T17:02:40.540Z,19.51
2023-04-16T17:07:49.180Z,18.88
2023-04-16T17:12:58.313Z,18.48
2023-04-16T17:18:07.929Z,20.72
2023-04-16T17:23:17.032Z,18.67
2023-04-16T17:28:25.910Z,20.12
2023-04-16T17:33:35.255Z,18.11
2023-04-16T17:38:44.914Z,16.78
2023-04-16T17:43:52.874Z,20.13
2023-04-16T17:49:01.470Z,18.83
2023-04-16T17:54:10.604Z,18.62
2023-04-16T17:59:19.252Z,18.59
2023-04-16T18:04:28.675Z,20.63
2023-04-16T18:09:37.446Z,18.32
2023-04-16T18:14:46.514Z,20.82
2023-04-16T18:19:55.219Z,19.33
2023-04-16T18:25:04.819Z,18.62
2023-04-16T18:35:23.136Z,19.64
2023-04-16T18:40:31.750Z,21.98
2023-04-16T18:45:41.255Z,23.80
2023-04-16T18:50:50.173Z,24.76
2023-04-16T18:55:59.009Z,22.89
2023-04-16T19:01:07.753Z,22.12
2023-04-16T19:06:16.962Z,19.59
2023-04-16T19:11:27.305Z,21.45
2023-04-16T19:16:27.274Z,18.18
2023-04-16T19:21:36.062Z,19.63
2023-04-16T19:26:45.539Z,17.76
2023-04-16T19:31:55.494Z,19.52
2023-04-16T19:37:06.319Z,18.78
2023-04-16T19:42:05.283Z,18.76
2023-04-16T19:47:15.361Z,20.04
2023-04-16T19:52:14.366Z,16.23
2023-04-16T19:57:24.015Z,19.53
2023-04-16T20:02:32.877Z,20.07
2023-04-16T20:07:41.869Z,17.76
2023-04-16T20:12:50.508Z,18.47
2023-04-16T20:17:59.270Z,18.10
2023-04-16T20:23:07.763Z,16.33
2023-04-16T20:28:16.738Z,16.27
2023-04-16T20:33:25.329Z,15.12
2023-04-16T20:38:37.151Z,16.20
2023-04-16T20:43:36.289Z,16.63
2023-04-16T20:48:45.136Z,15.57
2023-04-16T20:53:53.614Z,15.78
2023-04-16T20:59:02.531Z,14.46
2023-04-16T21:04:11.173Z,15.08
2023-04-16T21:09:20.125Z,15.43
2023-04-16T21:14:28.853Z,16.38
2023-04-16T21:19:37.986Z,13.69
2023-04-16T21:24:46.793Z,14.29
2023-04-16T21:29:55.747Z,15.15
2023-04-16T21:35:04.602Z,14.39
2023-04-16T21:40:13.389Z,15.31
2023-04-16T21:45:21.977Z,15.85
2023-04-16T21:50:30.889Z,15.69
2023-04-16T21:55:39.404Z,14.89
2023-04-16T22:00:48.500Z,13.85
2023-04-16T22:05:56.750Z,16.72
2023-04-16T22:11:05.870Z,13.44
2023-04-16T22:16:14.430Z,14.39
2023-04-16T22:21:23.098Z,16.05
2023-04-16T22:26:31.800Z,15.59
2023-04-16T22:31:41.211Z,15.97
2023-04-16T22:36:49.502Z,14.97
2023-04-16T22:41:58.531Z,15.31
2023-04-16T22:47:07.139Z,17.06
2023-04-16T22:52:16.183Z,14.58
2023-04-16T22:57:24.646Z,15.56
2023-04-16T23:02:33.469Z,17.63
2023-04-16T23:07:41.861Z,15.88
2023-04-16T23:12:50.436Z,17.06
2023-04-16T23:17:59.078Z,17.32
2023-04-16T23:23:07.595Z,15.71
2023-04-16T23:28:16.853Z,16.28
2023-04-16T23:33:26.021Z,16.37
2023-04-16T23:38:34.614Z,19.68
2023-04-16T23:43:43.645Z,16.83
2023-04-16T23:48:52.469Z,19.30
2023-04-16T23:54:01.205Z,18.71
2023-04-16T23:59:10.305Z,18.39
